Time;durP1;ratioP1;P1;durP2;ratioP2;P2;SDS_P1;SDS_P2;PMS_P1;PMS_P2;Temp;Humidity;BMP_temperature;BMP_pressure;BME280_temperature;BME280_humidity;BME280_pressure;Samples;Min_cycle;Max_cycle;Signal;HPM_P1;HPM_P2
2023/03/31 00:00:35;;;;;;;3.70;3.33;;;7.00;99.90;;;;;;5051975;28;20527;-86
2023/03/31 00:03:08;;;;;;;3.83;3.33;;;6.90;99.90;;;;;;5046217;28;20512;-86
2023/03/31 00:05:36;;;;;;;4.70;3.30;;;6.90;99.90;;;;;;5031249;28;20454;-85
2023/03/31 00:08:03;;;;;;;4.30;3.23;;;6.80;99.90;;;;;;5031641;28;20569;-86
2023/03/31 00:10:34;;;;;;;4.53;3.00;;;6.60;99.90;;;;;;5031730;28;20500;-86
2023/03/31 00:13:01;;;;;;;5.03;3.37;;;6.50;99.90;;;;;;5031631;28;20876;-85
2023/03/31 00:15:29;;;;;;;3.53;3.23;;;6.50;99.90;;;;;;5031600;28;20606;-85
2023/03/31 00:17:59;;;;;;;4.30;3.20;;;6.70;99.90;;;;;;5031628;28;20866;-86
2023/03/31 00:20:26;;;;;;;3.90;3.50;;;6.50;99.90;;;;;;5031285;28;20513;-86
2023/03/31 00:22:53;;;;;;;3.97;3.33;;;6.50;99.90;;;;;;5031125;28;20849;-86
2023/03/31 00:25:20;;;;;;;3.30;2.77;;;6.60;99.90;;;;;;5042673;28;20451;-85
2023/03/31 00:27:51;;;;;;;3.43;3.13;;;6.60;99.90;;;;;;5049820;28;20532;-86
2023/03/31 00:30:18;;;;;;;4.60;3.60;;;6.70;99.90;;;;;;5050831;28;20564;-85
2023/03/31 00:32:45;;;;;;;5.30;3.90;;;6.60;99.90;;;;;;5051550;28;20958;-85
2023/03/31 00:35:12;;;;;;;4.50;3.17;;;6.50;99.90;;;;;;5051244;28;20473;-85
2023/03/31 00:37:42;;;;;;;4.00;3.60;;;6.40;99.90;;;;;;5051188;28;20446;-86
2023/03/31 00:40:09;;;;;;;4.83;4.23;;;6.20;99.90;;;;;;5048825;28;20462;-86
2023/03/31 00:42:40;;;;;;;4.30;3.77;;;6.30;99.90;;;;;;5032017;28;20545;-85
2023/03/31 00:45:27;;;;;;;5.13;3.70;;;6.30;99.90;;;;;;5051567;28;20445;-85
2023/03/31 00:47:58;;;;;;;5.50;3.47;;;6.40;99.90;;;;;;5058496;28;20434;-85
2023/03/31 00:50:28;;;;;;;4.10;3.70;;;6.20;99.90;;;;;;5069158;28;20454;-85
2023/03/31 00:52:58;;;;;;;5.23;3.87;;;6.30;99.90;;;;;;5052154;28;20442;-83
2023/03/31 00:55:30;;;;;;;4.93;3.83;;;6.30;99.90;;;;;;5054946;28;20496;-83
2023/03/31 00:58:00;;;;;;;4.30;3.87;;;6.40;99.90;;;;;;5038766;28;20438;-83
2023/03/31 01:00:29;;;;;;;5.47;3.77;;;6.30;99.90;;;;;;5035070;28;20474;-83
2023/03/31 01:02:58;;;;;;;4.67;3.93;;;6.30;99.90;;;;;;5034916;28;20470;-83
2023/03/31 01:05:30;;;;;;;4.70;4.00;;;6.30;99.90;;;;;;5034515;28;20486;-83
2023/03/31 01:07:59;;;;;;;5.70;4.70;;;6.40;99.90;;;;;;5034784;28;20485;-82
2023/03/31 01:10:26;;;;;;;3.87;3.53;;;6.40;99.90;;;;;;5034619;28;20474;-83
2023/03/31 01:12:56;;;;;;;5.60;3.80;;;6.20;99.90;;;;;;5034559;28;20443;-83
2023/03/31 01:15:23;;;;;;;5.50;5.00;;;5.80;99.90;;;;;;5034505;28;20450;-83
2023/03/31 01:17:54;;;;;;;5.33;4.57;;;5.80;99.90;;;;;;5037781;28;20484;-83
2023/03/31 01:20:30;;;;;;;4.80;4.10;;;5.90;99.90;;;;;;5034442;28;20470;-82
2023/03/31 01:23:54;;;;;;;4.40;3.73;;;6.00;99.90;;;;;;5034430;28;20486;-83
2023/03/31 01:26:42;;;;;;;4.43;4.03;;;6.10;99.90;;;;;;5010080;28;20445;-86
2023/03/31 01:29:26;;;;;;;4.27;3.87;;;6.10;99.90;;;;;;5033727;28;20509;-85
2023/03/31 01:32:19;;;;;;;6.40;4.20;;;6.20;99.90;;;;;;5034444;28;20982;-83
2023/03/31 01:35:19;;;;;;;4.83;4.27;;;6.00;99.90;;;;;;5016855;28;20462;-86
2023/03/31 01:38:32;;;;;;;5.40;3.90;;;5.70;99.90;;;;;;5053919;28;20445;-86
2023/03/31 01:41:21;;;;;;;4.70;4.10;;;5.80;99.90;;;;;;5054229;28;20519;-86
2023/03/31 01:43:55;;;;;;;4.20;3.80;;;5.80;99.90;;;;;;5054094;28;21158;-86
2023/03/31 01:46:28;;;;;;;4.13;3.83;;;6.10;99.90;;;;;;5053943;28;20963;-86
2023/03/31 01:49:02;;;;;;;5.80;4.47;;;6.00;99.90;;;;;;5053671;28;20516;-85
2023/03/31 01:51:35;;;;;;;4.90;4.00;;;6.00;99.90;;;;;;5052501;28;20452;-86
2023/03/31 01:54:10;;;;;;;9.23;4.47;;;5.90;99.90;;;;;;5053073;28;20973;-85
2023/03/31 01:56:41;;;;;;;4.27;3.90;;;5.70;99.90;;;;;;5052860;28;20468;-85
2023/03/31 01:59:12;;;;;;;4.20;3.80;;;5.50;99.90;;;;;;5052678;28;20550;-86
2023/03/31 02:01:46;;;;;;;5.03;4.50;;;5.70;99.90;;;;;;5051354;28;20457;-85
2023/03/31 02:04:18;;;;;;;9.80;4.47;;;5.80;99.90;;;;;;5050094;28;20454;-85
2023/03/31 02:06:51;;;;;;;5.17;4.60;;;5.80;99.90;;;;;;5052623;28;20489;-87
2023/03/31 02:09:22;;;;;;;5.33;4.83;;;5.80;99.90;;;;;;5027551;28;20565;-86
2023/03/31 02:11:51;;;;;;;5.10;4.10;;;5.70;99.90;;;;;;5033707;28;20450;-85
2023/03/31 02:14:22;;;;;;;4.77;4.37;;;5.60;99.90;;;;;;5051727;28;20442;-86
2023/03/31 02:16:57;;;;;;;5.10;4.40;;;5.40;99.90;;;;;;5040459;28;20460;-85
2023/03/31 02:19:27;;;;;;;4.67;4.20;;;5.50;99.90;;;;;;5053385;28;20466;-85
2023/03/31 02:21:55;;;;;;;8.03;4.80;;;5.70;99.90;;;;;;5050067;28;20454;-85
2023/03/31 02:24:26;;;;;;;5.03;4.47;;;5.80;99.90;;;;;;5052390;28;20453;-86
2023/03/31 02:27:01;;;;;;;4.80;4.40;;;5.80;99.90;;;;;;5032959;28;20530;-86
2023/03/31 02:29:28;;;;;;;4.20;3.80;;;5.90;99.90;;;;;;5053050;28;20499;-85
2023/03/31 02:32:01;;;;;;;7.50;4.27;;;5.90;99.90;;;;;;5046493;28;20688;-86
2023/03/31 02:34:28;;;;;;;5.60;4.40;;;5.70;99.90;;;;;;5033580;28;20442;-85
2023/03/31 02:36:55;;;;;;;4.90;4.40;;;5.80;99.90;;;;;;5040244;28;20540;-86
2023/03/31 02:39:26;;;;;;;4.10;3.70;;;5.90;99.90;;;;;;5049317;28;20513;-86
2023/03/31 02:41:55;;;;;;;5.40;3.77;;;5.80;99.90;;;;;;5033070;28;20474;-86
2023/03/31 02:44:23;;;;;;;4.93;4.43;;;5.80;99.90;;;;;;5032959;28;20981;-85
2023/03/31 02:46:50;;;;;;;4.47;4.07;;;6.00;99.90;;;;;;5033982;28;20450;-85
2023/03/31 02:49:20;;;;;;;4.60;4.10;;;6.00;99.90;;;;;;5045954;28;20539;-86
2023/03/31 02:52:27;;;;;;;5.23;3.80;;;5.90;99.90;;;;;;5042682;28;20505;-85
2023/03/31 02:55:27;;;;;;;5.80;4.30;;;5.90;99.90;;;;;;5016545;28;20451;-86
2023/03/31 02:58:18;;;;;;;5.67;4.40;;;5.80;99.90;;;;;;5030459;28;20503;-85
2023/03/31 03:00:57;;;;;;;7.33;5.00;;;5.80;99.90;;;;;;5051940;28;20564;-86
2023/03/31 03:03:36;;;;;;;6.07;4.73;;;5.80;99.90;;;;;;5034338;28;20517;-85
2023/03/31 03:06:12;;;;;;;4.53;3.80;;;5.80;99.90;;;;;;5042718;28;20488;-86
2023/03/31 03:08:54;;;;;;;6.80;4.60;;;5.80;99.90;;;;;;5039224;28;20446;-85
2023/03/31 03:11:25;;;;;;;7.50;3.47;;;5.90;99.90;;;;;;5032590;28;20449;-86
2023/03/31 03:14:00;;;;;;;4.60;4.20;;;6.00;99.90;;;;;;5021086;28;20439;-86
2023/03/31 03:16:32;;;;;;;4.80;4.37;;;5.70;99.90;;;;;;5034331;28;21010;-86
2023/03/31 03:19:00;;;;;;;5.90;4.10;;;5.90;99.90;;;;;;5021585;28;20438;-86
2023/03/31 03:21:28;;;;;;;5.40;4.20;;;6.00;99.90;;;;;;5049334;28;20465;-86
2023/03/31 03:23:55;;;;;;;4.70;4.30;;;6.00;99.90;;;;;;5042973;28;20532;-85
2023/03/31 03:26:26;;;;;;;4.83;4.30;;;5.70;99.90;;;;;;5044267;28;20441;-86
2023/03/31 03:28:56;;;;;;;5.60;4.60;;;5.70;99.90;;;;;;5032553;28;20447;-86
2023/03/31 03:31:24;;;;;;;5.77;4.50;;;5.60;99.90;;;;;;5033435;28;20469;-85
2023/03/31 03:33:51;;;;;;;4.90;4.43;;;5.50;99.90;;;;;;5051576;28;20595;-86
2023/03/31 03:36:19;;;;;;;10.00;5.77;;;5.50;99.90;;;;;;5041765;28;20468;-86
2023/03/31 03:38:46;;;;;;;5.40;4.50;;;5.50;99.90;;;;;;5039993;28;20823;-85
2023/03/31 03:41:13;;;;;;;4.77;4.20;;;5.60;99.90;;;;;;5036163;28;20479;-85
2023/03/31 03:43:39;;;;;;;5.37;4.57;;;5.70;99.90;;;;;;5031457;28;21247;-86
2023/03/31 03:46:08;;;;;;;5.80;4.50;;;5.70;99.90;;;;;;5031862;28;20455;-85
2023/03/31 03:48:35;;;;;;;5.00;4.50;;;5.90;99.90;;;;;;5041355;28;20538;-86
2023/03/31 03:51:02;;;;;;;5.80;4.17;;;5.80;99.90;;;;;;5051449;28;20536;-85
2023/03/31 03:53:29;;;;;;;5.20;4.20;;;5.60;99.90;;;;;;5050925;28;20871;-84
2023/03/31 03:55:58;;;;;;;5.90;4.77;;;5.80;99.90;;;;;;5050206;28;20442;-86
2023/03/31 03:58:25;;;;;;;4.60;4.10;;;5.80;99.90;;;;;;5051887;28;20454;-86
2023/03/31 04:00:52;;;;;;;5.33;4.83;;;5.60;99.90;;;;;;5050552;28;20469;-85
2023/03/31 04:03:20;;;;;;;5.10;4.13;;;5.60;99.90;;;;;;5051813;28;20477;-86
2023/03/31 04:05:49;;;;;;;3.90;3.50;;;5.70;99.90;;;;;;5051502;28;20458;-84
2023/03/31 04:08:16;;;;;;;4.90;4.50;;;5.70;99.90;;;;;;5051552;28;20460;-86
2023/03/31 04:10:45;;;;;;;4.90;4.50;;;5.70;99.90;;;;;;5051115;28;20566;-86
2023/03/31 04:13:12;;;;;;;7.80;4.60;;;5.70;99.90;;;;;;5051469;28;20455;-86
2023/03/31 04:15:39;;;;;;;5.40;4.90;;;5.80;99.90;;;;;;5050999;28;20504;-85
2023/03/31 04:18:09;;;;;;;5.03;4.10;;;5.70;99.90;;;;;;5051371;28;20489;-85
2023/03/31 04:20:37;;;;;;;6.40;4.30;;;5.60;99.90;;;;;;5051569;28;20491;-85
2023/03/31 04:23:08;;;;;;;5.50;4.20;;;5.60;99.90;;;;;;5051537;28;20955;-85
2023/03/31 04:25:37;;;;;;;4.37;3.97;;;5.60;99.90;;;;;;5047487;28;20522;-85
2023/03/31 04:28:05;;;;;;;7.13;4.40;;;5.70;99.90;;;;;;5033475;28;20450;-86
2023/03/31 04:30:33;;;;;;;6.20;4.50;;;5.70;99.90;;;;;;5038699;28;20474;-85
2023/03/31 04:33:02;;;;;;;5.13;4.50;;;5.40;99.90;;;;;;5058561;23;20543;-52
2023/03/31 04:35:41;;;;;;;4.80;4.40;;;5.50;99.90;;;;;;5051377;28;20984;-51
2023/03/31 04:38:09;;;;;;;5.50;3.97;;;5.70;99.90;;;;;;5056697;28;20944;-52
2023/03/31 04:40:38;;;;;;;4.33;3.93;;;5.70;99.90;;;;;;5062154;28;20465;-51
2023/03/31 04:43:05;;;;;;;5.70;4.90;;;5.70;99.90;;;;;;5055229;28;20441;-51
2023/03/31 04:45:32;;;;;;;7.00;6.23;;;5.60;99.90;;;;;;5055555;28;21043;-52
2023/03/31 04:47:59;;;;;;;9.40;8.50;;;5.40;99.90;;;;;;5056489;28;20841;-52
2023/03/31 04:50:27;;;;;;;5.13;4.63;;;5.20;99.90;;;;;;5052657;28;20475;-51
2023/03/31 04:52:54;;;;;;;7.60;4.57;;;5.20;99.90;;;;;;5048356;28;20445;-51
2023/03/31 04:55:22;;;;;;;8.57;7.67;;;5.20;99.90;;;;;;5047868;28;20517;-54
2023/03/31 04:57:50;;;;;;;5.80;4.47;;;5.10;99.90;;;;;;5052919;28;20539;-52
2023/03/31 05:00:18;;;;;;;5.03;4.33;;;5.00;99.90;;;;;;5061613;28;20458;-54
2023/03/31 05:02:45;;;;;;;10.03;9.03;;;5.00;99.90;;;;;;5055702;28;20511;-52
2023/03/31 05:05:12;;;;;;;7.53;6.70;;;5.20;99.90;;;;;;5035876;28;20555;-53
2023/03/31 05:07:39;;;;;;;7.77;6.60;;;5.30;99.90;;;;;;5051299;28;20438;-52
2023/03/31 05:10:07;;;;;;;8.87;7.97;;;5.30;99.90;;;;;;5055281;28;20516;-52
2023/03/31 05:12:36;;;;;;;8.10;7.00;;;4.90;99.90;;;;;;5053423;28;20536;-52
2023/03/31 05:15:03;;;;;;;8.83;7.63;;;4.50;99.90;;;;;;5041497;28;20896;-52
2023/03/31 05:17:31;;;;;;;7.83;7.07;;;4.50;99.90;;;;;;5053249;28;20484;-54
2023/03/31 05:19:58;;;;;;;10.33;8.50;;;4.50;99.90;;;;;;5055960;28;20440;-52
2023/03/31 05:22:26;;;;;;;10.87;8.17;;;4.80;99.90;;;;;;5056299;28;21194;-51
2023/03/31 05:24:52;;;;;;;9.00;7.07;;;4.90;99.90;;;;;;5053430;28;20464;-52
2023/03/31 05:27:20;;;;;;;7.90;7.17;;;5.00;99.90;;;;;;5054505;28;20516;-54
2023/03/31 05:29:49;;;;;;;10.07;8.50;;;5.30;99.90;;;;;;5054977;28;20481;-52
2023/03/31 05:32:16;;;;;;;13.07;9.20;;;5.40;99.90;;;;;;5052701;28;20441;-53
2023/03/31 05:34:43;;;;;;;8.93;8.03;;;5.60;99.90;;;;;;5036878;28;20468;-52
2023/03/31 05:37:10;;;;;;;9.20;8.33;;;5.60;99.90;;;;;;5037534;28;20525;-51
2023/03/31 05:39:37;;;;;;;11.87;9.97;;;5.70;99.90;;;;;;5040459;28;20877;-52
2023/03/31 05:42:04;;;;;;;9.37;8.47;;;5.50;99.90;;;;;;5036630;28;20481;-51
2023/03/31 05:44:31;;;;;;;11.27;9.07;;;5.30;99.90;;;;;;5035957;28;20493;-52
2023/03/31 05:47:00;;;;;;;10.97;9.90;;;5.20;99.90;;;;;;5049075;28;21037;-51
2023/03/31 05:49:26;;;;;;;9.90;8.80;;;5.40;99.90;;;;;;5055369;28;20525;-51
2023/03/31 05:51:53;;;;;;;12.07;10.10;;;5.40;99.90;;;;;;5054731;28;20505;-53
2023/03/31 05:54:21;;;;;;;10.53;8.83;;;5.10;99.90;;;;;;5055043;28;20529;-50
2023/03/31 05:56:48;;;;;;;9.53;8.60;;;5.20;99.90;;;;;;5049070;28;20454;-51
2023/03/31 05:59:15;;;;;;;8.63;7.83;;;5.20;99.90;;;;;;5052836;28;20838;-51
2023/03/31 06:01:42;;;;;;;7.70;7.00;;;5.40;99.90;;;;;;5048855;28;20444;-52
2023/03/31 06:04:11;;;;;;;9.60;6.60;;;5.60;99.90;;;;;;5051567;28;20461;-51
2023/03/31 06:06:38;;;;;;;7.80;6.47;;;5.70;99.90;;;;;;5055294;28;20621;-51
2023/03/31 06:09:05;;;;;;;15.83;9.37;;;5.90;99.90;;;;;;5049257;28;20475;-53
2023/03/31 06:11:32;;;;;;;11.00;10.00;;;5.70;99.90;;;;;;5049869;28;20907;-52
2023/03/31 06:13:59;;;;;;;10.70;9.70;;;5.60;99.90;;;;;;5053003;28;20533;-52
2023/03/31 06:16:27;;;;;;;10.43;9.40;;;5.60;99.90;;;;;;5049923;28;20995;-54
2023/03/31 06:18:54;;;;;;;8.30;7.50;;;5.70;99.90;;;;;;5037748;28;20503;-51
2023/03/31 06:21:23;;;;;;;11.67;9.67;;;5.70;99.90;;;;;;5044538;28;20441;-53
2023/03/31 06:23:53;;;;;;;8.53;7.73;;;5.80;99.90;;;;;;5043448;28;20529;-51
2023/03/31 06:26:21;;;;;;;11.27;10.07;;;6.00;99.90;;;;;;5046326;28;20535;-51
2023/03/31 06:28:48;;;;;;;14.60;12.03;;;6.00;99.90;;;;;;5054507;28;20453;-51
2023/03/31 06:31:17;;;;;;;12.97;11.67;;;5.80;99.90;;;;;;5055382;28;20515;-54
2023/03/31 06:33:45;;;;;;;15.77;13.57;;;5.60;99.90;;;;;;5055379;28;20481;-51
2023/03/31 06:36:14;;;;;;;15.43;13.90;;;5.70;99.90;;;;;;5053093;28;20469;-54
2023/03/31 06:38:43;;;;;;;13.10;11.70;;;5.80;99.90;;;;;;5054804;28;20687;-51
2023/03/31 06:41:13;;;;;;;10.67;9.60;;;6.00;99.90;;;;;;5055046;28;20501;-54
2023/03/31 06:43:40;;;;;;;10.73;9.83;;;5.90;99.90;;;;;;5055089;28;20528;-55
2023/03/31 06:46:07;;;;;;;8.33;7.50;;;5.90;99.90;;;;;;5055545;28;20577;-52
2023/03/31 06:48:34;;;;;;;8.00;7.30;;;6.00;99.90;;;;;;5055578;28;20441;-53
2023/03/31 06:51:04;;;;;;;6.70;6.10;;;6.20;99.90;;;;;;5054603;28;20531;-52
2023/03/31 06:53:32;;;;;;;8.83;7.60;;;6.20;99.90;;;;;;5054464;28;20501;-51
2023/03/31 06:56:00;;;;;;;11.87;8.73;;;6.40;99.90;;;;;;5054371;28;20493;-53
2023/03/31 06:58:27;;;;;;;9.60;8.63;;;6.30;99.90;;;;;;5054289;28;20445;-52
2023/03/31 07:00:54;;;;;;;11.83;9.33;;;6.30;99.90;;;;;;5053662;28;20973;-52
2023/03/31 07:03:23;;;;;;;10.23;9.27;;;6.30;99.90;;;;;;5054747;28;20472;-53
2023/03/31 07:05:51;;;;;;;11.00;9.97;;;6.30;99.90;;;;;;5054336;28;21003;-52
2023/03/31 07:08:18;;;;;;;9.23;8.13;;;6.10;99.90;;;;;;5054664;28;20464;-51
2023/03/31 07:10:47;;;;;;;10.73;8.27;;;6.10;99.90;;;;;;5054053;28;20542;-54
2023/03/31 07:13:16;;;;;;;13.43;9.90;;;6.20;99.90;;;;;;5054126;28;20448;-51
2023/03/31 07:15:44;;;;;;;10.77;9.67;;;6.40;99.90;;;;;;5053037;28;20556;-52
2023/03/31 07:18:11;;;;;;;11.37;8.73;;;6.60;99.90;;;;;;5052616;28;20485;-52
2023/03/31 07:20:38;;;;;;;9.70;8.80;;;6.50;99.90;;;;;;5052568;28;20451;-51
2023/03/31 07:23:07;;;;;;;11.30;10.20;;;6.60;99.90;;;;;;5052867;28;20480;-52
2023/03/31 07:25:34;;;;;;;12.90;9.60;;;6.50;99.90;;;;;;5053070;28;20461;-52
2023/03/31 07:28:02;;;;;;;11.93;9.70;;;6.40;99.90;;;;;;5053711;28;20441;-51
2023/03/31 07:30:31;;;;;;;13.43;10.23;;;6.40;99.90;;;;;;5053221;28;20466;-56
2023/03/31 07:32:58;;;;;;;11.60;10.40;;;6.40;99.90;;;;;;5054028;28;20533;-52
2023/03/31 07:35:25;;;;;;;13.40;10.60;;;6.40;99.90;;;;;;5051904;28;20465;-53
2023/03/31 07:37:52;;;;;;;11.00;9.90;;;6.40;99.90;;;;;;5053081;28;20537;-51
2023/03/31 07:40:22;;;;;;;15.60;10.47;;;6.30;99.90;;;;;;5053749;28;20438;-51
2023/03/31 07:42:50;;;;;;;14.77;9.77;;;6.20;99.90;;;;;;5054104;28;20445;-54
2023/03/31 07:45:18;;;;;;;9.37;8.50;;;6.30;99.90;;;;;;5053519;28;20473;-53
2023/03/31 07:47:47;;;;;;;10.20;8.40;;;6.30;99.90;;;;;;5050944;28;20477;-54
2023/03/31 07:50:15;;;;;;;9.90;7.53;;;6.60;99.90;;;;;;5050892;28;20952;-52
2023/03/31 07:52:43;;;;;;;8.83;7.27;;;6.90;99.90;;;;;;5051528;28;20469;-51
2023/03/31 07:55:10;;;;;;;8.60;7.70;;;6.90;99.90;;;;;;5051115;28;20544;-51
2023/03/31 07:57:39;;;;;;;8.53;7.60;;;6.90;99.90;;;;;;5051782;28;20564;-51
2023/03/31 08:00:10;;;;;;;8.77;7.47;;;7.00;99.90;;;;;;5051618;28;20797;-53
2023/03/31 08:02:38;;;;;;;8.37;7.67;;;7.20;99.90;;;;;;5052018;28;20479;-52
2023/03/31 08:05:07;;;;;;;7.17;6.47;;;7.00;99.90;;;;;;5052334;28;20552;-51
2023/03/31 08:07:34;;;;;;;8.50;7.70;;;6.90;99.90;;;;;;5052184;28;20574;-51
2023/03/31 08:10:03;;;;;;;8.20;6.83;;;7.20;99.90;;;;;;5051177;28;20488;-53
2023/03/31 08:12:30;;;;;;;7.43;6.73;;;7.20;99.90;;;;;;5050883;28;20473;-51
2023/03/31 08:14:57;;;;;;;8.80;7.90;;;7.40;99.90;;;;;;5050503;28;20497;-51
2023/03/31 08:17:24;;;;;;;9.70;8.23;;;7.50;99.90;;;;;;5050719;28;20535;-53
2023/03/31 08:19:51;;;;;;;9.87;8.87;;;7.70;99.90;;;;;;5050318;28;20484;-52
2023/03/31 08:22:19;;;;;;;9.53;7.47;;;8.00;99.90;;;;;;5050235;28;20485;-52
2023/03/31 08:24:47;;;;;;;9.33;7.30;;;8.50;99.90;;;;;;5050884;28;20554;-55
2023/03/31 08:27:14;;;;;;;7.50;6.80;;;8.50;99.90;;;;;;5050479;28;20529;-52
2023/03/31 08:29:41;;;;;;;7.13;6.43;;;8.40;99.90;;;;;;5050653;28;20544;-53
2023/03/31 08:32:08;;;;;;;7.80;7.10;;;8.30;99.90;;;;;;5050498;28;20478;-52
2023/03/31 08:34:35;;;;;;;7.60;6.90;;;8.10;99.90;;;;;;5050093;28;20512;-53
2023/03/31 08:37:02;;;;;;;7.53;6.70;;;8.20;99.90;;;;;;5049196;28;20453;-52
2023/03/31 08:39:30;;;;;;;7.87;6.43;;;8.30;99.90;;;;;;5050323;28;20528;-52
2023/03/31 08:42:01;;;;;;;11.53;6.40;;;8.30;99.90;;;;;;5050221;28;20438;-50
2023/03/31 08:44:35;;;;;;;6.33;5.73;;;8.50;99.90;;;;;;5050541;28;20549;-55
2023/03/31 08:47:04;;;;;;;9.40;6.60;;;8.50;99.90;;;;;;5050868;28;20437;-54
2023/03/31 08:49:37;;;;;;;7.60;6.40;;;8.70;99.90;;;;;;5050367;28;20850;-52
2023/03/31 08:52:09;;;;;;;11.00;6.57;;;8.70;99.90;;;;;;5050472;28;20532;-52
2023/03/31 08:54:44;;;;;;;7.53;6.83;;;8.80;99.90;;;;;;5050235;28;20878;-51
2023/03/31 08:57:17;;;;;;;9.07;7.17;;;8.90;99.90;;;;;;5050018;28;20449;-53
2023/03/31 08:59:45;;;;;;;8.60;6.20;;;8.60;99.90;;;;;;5051955;28;20532;-53
2023/03/31 09:02:21;;;;;;;7.87;6.43;;;8.60;99.90;;;;;;5050454;28;20442;-52
2023/03/31 09:05:16;;;;;;;8.07;6.70;;;8.70;99.90;;;;;;5049988;28;20548;-52
2023/03/31 09:07:54;;;;;;;5.37;4.83;;;8.70;99.90;;;;;;5033700;28;20489;-53
2023/03/31 09:10:35;;;;;;;6.90;6.30;;;8.50;99.90;;;;;;5052887;28;20442;-50
2023/03/31 09:13:17;;;;;;;6.30;5.63;;;8.50;99.90;;;;;;5052999;28;20519;-51
2023/03/31 09:15:48;;;;;;;6.37;5.50;;;8.60;99.90;;;;;;5054357;28;20489;-51
2023/03/31 09:18:20;;;;;;;6.90;6.20;;;8.90;99.90;;;;;;5053112;28;20549;-51
2023/03/31 09:20:51;;;;;;;6.10;5.50;;;9.00;99.90;;;;;;5053479;28;20529;-53
2023/03/31 09:23:26;;;;;;;6.60;5.93;;;9.10;99.90;;;;;;5053358;28;20523;-50
2023/03/31 09:25:56;;;;;;;5.63;5.03;;;9.30;99.90;;;;;;5053328;28;20500;-52
2023/03/31 09:28:35;;;;;;;7.37;5.60;;;9.60;99.90;;;;;;5053812;28;20521;-53
2023/03/31 09:31:08;;;;;;;6.27;5.63;;;9.60;99.90;;;;;;5055259;28;20842;-50
2023/03/31 09:33:42;;;;;;;8.20;7.30;;;9.80;99.90;;;;;;5053284;28;20458;-51
2023/03/31 09:36:15;;;;;;;6.80;5.10;;;9.80;99.90;;;;;;5051986;28;21047;-52
2023/03/31 09:38:43;;;;;;;6.57;5.10;;;10.10;99.90;;;;;;5053429;28;20442;-52
2023/03/31 09:41:12;;;;;;;4.67;4.27;;;10.30;99.90;;;;;;5052755;28;20980;-53
2023/03/31 09:43:41;;;;;;;6.03;4.70;;;10.40;99.90;;;;;;5052884;28;20445;-52
2023/03/31 09:46:17;;;;;;;6.03;4.30;;;10.50;99.90;;;;;;5052953;28;20539;-52
2023/03/31 09:48:52;;;;;;;5.90;5.30;;;10.60;99.90;;;;;;5053551;28;20777;-52
2023/03/31 09:51:25;;;;;;;6.90;5.10;;;10.70;99.90;;;;;;5052457;28;20481;-55
2023/03/31 09:53:56;;;;;;;8.50;6.27;;;10.80;99.90;;;;;;5052726;28;20488;-52
2023/03/31 09:56:45;;;;;;;5.90;4.30;;;11.00;99.90;;;;;;5052950;28;20540;-52
2023/03/31 09:59:15;;;;;;;5.67;5.10;;;11.20;99.90;;;;;;5052713;28;20445;-52
2023/03/31 10:01:44;;;;;;;5.40;4.70;;;11.20;99.90;;;;;;5052307;28;20435;-50
2023/03/31 10:04:19;;;;;;;4.97;4.50;;;11.30;99.90;;;;;;5052610;28;20476;-51
2023/03/31 10:06:46;;;;;;;5.20;4.57;;;11.20;99.90;;;;;;5052692;28;20487;-53
2023/03/31 10:09:13;;;;;;;5.30;4.80;;;11.20;99.90;;;;;;5052522;28;20938;-50
2023/03/31 10:11:53;;;;;;;5.57;5.03;;;11.30;99.90;;;;;;5052246;28;20564;-50
2023/03/31 10:14:26;;;;;;;5.13;4.63;;;11.60;99.90;;;;;;5052463;28;20549;-50
2023/03/31 10:16:55;;;;;;;4.10;3.60;;;11.60;99.90;;;;;;5052097;28;20445;-50
2023/03/31 10:19:24;;;;;;;5.00;4.50;;;11.60;99.90;;;;;;5052566;28;20451;-50
2023/03/31 10:21:57;;;;;;;7.03;4.77;;;11.60;99.90;;;;;;5052013;28;20448;-52
2023/03/31 10:24:25;;;;;;;6.30;5.70;;;11.80;99.90;;;;;;5051593;28;20464;-50
2023/03/31 10:26:55;;;;;;;6.10;5.50;;;11.90;99.90;;;;;;5051290;28;20444;-50
2023/03/31 10:29:25;;;;;;;6.13;4.73;;;11.90;99.90;;;;;;5051705;28;20470;-50
2023/03/31 10:31:52;;;;;;;6.10;5.30;;;12.10;99.90;;;;;;5049047;28;20884;-51
2023/03/31 10:34:20;;;;;;;5.43;4.93;;;12.20;99.90;;;;;;5051470;28;20511;-51
2023/03/31 10:36:49;;;;;;;4.73;3.90;;;12.20;99.90;;;;;;5050712;28;20854;-49
2023/03/31 10:39:18;;;;;;;8.50;6.43;;;12.60;99.90;;;;;;5051574;28;20872;-50
2023/03/31 10:41:51;;;;;;;7.23;6.53;;;12.70;99.90;;;;;;5051477;28;20525;-51
2023/03/31 10:44:37;;;;;;;6.33;5.83;;;12.70;99.90;;;;;;5048362;28;20908;-51
2023/03/31 10:47:15;;;;;;;10.77;7.17;;;12.60;99.90;;;;;;5049720;28;20468;-53
2023/03/31 10:49:44;;;;;;;6.40;5.80;;;12.90;99.90;;;;;;5050108;28;20527;-51
2023/03/31 10:52:19;;;;;;;5.10;3.40;;;12.70;99.90;;;;;;5050492;28;20567;-50
2023/03/31 10:54:48;;;;;;;5.90;4.33;;;13.60;99.90;;;;;;5051725;28;20538;-50
2023/03/31 10:57:16;;;;;;;4.93;4.43;;;13.70;99.90;;;;;;5051807;28;20897;-49
2023/03/31 11:00:00;;;;;;;5.20;4.53;;;13.70;99.90;;;;;;5052097;28;20475;-50
2023/03/31 11:03:15;;;;;;;7.00;5.00;;;13.70;99.90;;;;;;5051786;28;20514;-49
2023/03/31 11:05:50;;;;;;;4.60;4.20;;;13.60;99.90;;;;;;5051003;28;20891;-53
2023/03/31 11:08:41;;;;;;;6.53;5.33;;;13.60;99.90;;;;;;5050794;28;20432;-51
2023/03/31 11:11:25;;;;;;;6.70;5.17;;;13.90;99.90;;;;;;5050177;28;20445;-50
2023/03/31 11:13:58;;;;;;;5.33;4.67;;;13.90;99.90;;;;;;5050804;28;20503;-49
2023/03/31 11:16:38;;;;;;;6.10;5.50;;;13.70;99.90;;;;;;5050473;28;20481;-50
2023/03/31 11:19:19;;;;;;;7.00;5.50;;;13.60;99.90;;;;;;5050714;28;21032;-52
2023/03/31 11:21:59;;;;;;;5.97;5.37;;;13.20;99.90;;;;;;5051372;28;20445;-52
2023/03/31 11:24:40;;;;;;;7.70;4.90;;;13.10;99.90;;;;;;5051128;28;20545;-53
2023/03/31 11:27:18;;;;;;;5.20;4.70;;;13.10;99.90;;;;;;5051539;28;20475;-52
2023/03/31 11:29:50;;;;;;;5.77;4.53;;;13.00;99.90;;;;;;5050931;28;20538;-52
2023/03/31 11:32:33;;;;;;;5.53;4.30;;;13.00;99.90;;;;;;5050677;28;20963;-51
2023/03/31 11:35:42;;;;;;;5.53;4.50;;;12.90;99.90;;;;;;5050698;28;20920;-53
2023/03/31 11:38:29;;;;;;;4.90;4.10;;;12.80;99.90;;;;;;5051369;28;20529;-52
2023/03/31 11:41:02;;;;;;;9.03;4.00;;;12.80;99.90;;;;;;5051178;28;20502;-52
2023/03/31 11:43:33;;;;;;;4.77;4.37;;;12.70;99.90;;;;;;5051175;28;20532;-52
2023/03/31 11:46:04;;;;;;;5.80;4.90;;;12.80;99.90;;;;;;5050903;28;20544;-50
2023/03/31 11:48:41;;;;;;;5.90;5.00;;;12.70;99.90;;;;;;5050722;28;20441;-52
2023/03/31 11:51:14;;;;;;;7.63;4.50;;;12.70;99.90;;;;;;5048694;28;20459;-50
2023/03/31 11:53:43;;;;;;;5.20;4.70;;;12.70;99.90;;;;;;5050659;28;20479;-52
2023/03/31 11:56:12;;;;;;;7.30;5.20;;;12.60;99.90;;;;;;5050591;28;20568;-50
2023/03/31 11:58:44;;;;;;;6.50;4.10;;;12.60;99.90;;;;;;5050818;28;20513;-50
2023/03/31 12:01:18;;;;;;;4.40;4.10;;;12.50;99.90;;;;;;5050476;28;20538;-50
2023/03/31 12:03:54;;;;;;;5.13;4.63;;;12.50;99.90;;;;;;5051145;28;20522;-51
2023/03/31 12:06:26;;;;;;;4.97;3.70;;;12.40;99.90;;;;;;5050960;28;20458;-51
2023/03/31 12:09:05;;;;;;;4.70;4.23;;;12.40;99.90;;;;;;5050545;28;20452;-53
2023/03/31 12:11:40;;;;;;;4.80;4.00;;;12.20;99.90;;;;;;5050450;28;20455;-51
2023/03/31 12:14:17;;;;;;;5.00;3.90;;;12.20;99.90;;;;;;5050429;28;20522;-52
2023/03/31 12:16:47;;;;;;;5.67;3.30;;;12.10;99.90;;;;;;5050449;28;20467;-52
2023/03/31 12:19:21;;;;;;;3.30;3.00;;;12.20;99.90;;;;;;5050547;28;20485;-50
2023/03/31 12:21:53;;;;;;;3.67;3.33;;;12.20;99.90;;;;;;5050635;28;20443;-50
2023/03/31 12:24:20;;;;;;;3.77;3.20;;;12.20;99.90;;;;;;5050464;28;20459;-50
2023/03/31 12:26:59;;;;;;;4.00;3.20;;;12.10;99.90;;;;;;5050444;28;20445;-49
2023/03/31 12:29:31;;;;;;;5.40;4.27;;;11.90;99.90;;;;;;5050354;28;20537;-50
2023/03/31 12:32:01;;;;;;;4.80;3.70;;;11.90;99.90;;;;;;5050267;28;20508;-49
2023/03/31 12:34:31;;;;;;;5.40;4.03;;;12.00;99.90;;;;;;5049549;28;20931;-52
2023/03/31 12:37:25;;;;;;;9.10;4.10;;;11.90;99.90;;;;;;5049659;28;20452;-52
2023/03/31 12:40:04;;;;;;;4.03;3.40;;;11.90;99.90;;;;;;5050635;28;20963;-53
2023/03/31 12:42:52;;;;;;;6.73;3.73;;;12.00;99.90;;;;;;5050301;28;20440;-51
2023/03/31 12:45:27;;;;;;;4.00;3.60;;;11.60;99.90;;;;;;5050564;28;20543;-51
2023/03/31 12:48:20;;;;;;;3.77;3.43;;;11.40;99.90;;;;;;5050328;28;20450;-55
2023/03/31 12:51:04;;;;;;;3.83;3.43;;;11.30;99.90;;;;;;5054492;28;20501;-52
2023/03/31 12:53:39;;;;;;;4.50;4.00;;;11.20;99.90;;;;;;5055367;28;20479;-50
2023/03/31 12:56:07;;;;;;;4.23;3.83;;;11.20;99.90;;;;;;5056290;28;20642;-51
2023/03/31 12:58:47;;;;;;;3.33;3.03;;;11.10;99.90;;;;;;5056128;28;20517;-51
2023/03/31 13:01:16;;;;;;;4.60;2.87;;;11.00;99.90;;;;;;5056357;28;20470;-50
2023/03/31 13:03:47;;;;;;;4.50;3.60;;;10.90;99.90;;;;;;5056492;28;20437;-50
2023/03/31 13:06:47;;;;;;;4.20;3.60;;;10.80;99.90;;;;;;5057017;28;21112;-51
2023/03/31 13:09:47;;;;;;;3.90;3.50;;;10.70;99.90;;;;;;5056386;28;20503;-51
2023/03/31 13:12:17;;;;;;;4.40;4.00;;;10.70;99.90;;;;;;5055959;28;20568;-51
2023/03/31 13:14:46;;;;;;;4.10;3.63;;;10.80;99.90;;;;;;5056657;28;20477;-52
2023/03/31 13:17:21;;;;;;;3.73;3.43;;;10.70;99.90;;;;;;5056838;28;20855;-51